Time;durP1;ratioP1;P1;durP2;ratioP2;P2;SDS_P1;SDS_P2;PMS_P1;PMS_P2;Temp;Humidity;BMP_temperature;BMP_pressure;BME280_temperature;BME280_humidity;BME280_pressure;Samples;Min_cycle;Max_cycle;Signal;HPM_P1;HPM_P2
2021/04/03 00:01:06;;;;;;;9.00;6.90;;;;;;;5.22;70.88;96579.50;5037417;28;20465;-86
2021/04/03 00:03:32;;;;;;;15.00;6.50;;;;;;;5.26;70.59;96575.31;5037448;28;20503;-86
2021/04/03 00:05:58;;;;;;;15.63;7.77;;;;;;;5.26;70.22;96583.34;5037980;28;20431;-86
2021/04/03 00:08:26;;;;;;;15.37;8.10;;;;;;;5.27;69.87;96582.13;5037596;28;20453;-87
2021/04/03 00:10:54;;;;;;;17.00;7.33;;;;;;;5.19;70.00;96589.25;5037428;28;20505;-85
2021/04/03 00:13:21;;;;;;;18.47;7.63;;;;;;;5.07;70.51;96579.88;5037611;28;20450;-86
2021/04/03 00:15:48;;;;;;;14.13;6.63;;;;;;;4.96;70.50;96598.66;5037209;28;20510;-86
2021/04/03 00:18:16;;;;;;;17.00;7.43;;;;;;;5.03;70.82;96587.44;5037838;28;20470;-86
2021/04/03 00:20:43;;;;;;;13.50;6.80;;;;;;;5.11;70.63;96587.59;5037949;28;20511;-86
2021/04/03 00:23:10;;;;;;;17.50;7.80;;;;;;;5.15;70.54;96588.78;5037905;28;20451;-87
2021/04/03 00:25:36;;;;;;;16.13;6.50;;;;;;;5.14;70.10;96583.94;5037508;28;20482;-86
2021/04/03 00:28:03;;;;;;;14.40;7.23;;;;;;;5.08;69.83;96592.00;5038021;28;20523;-87
2021/04/03 00:30:29;;;;;;;16.03;8.23;;;;;;;5.03;70.19;96590.09;5037494;28;20458;-86
2021/04/03 00:32:56;;;;;;;17.10;7.80;;;;;;;5.02;70.36;96590.59;5036777;28;20519;-87
2021/04/03 00:35:26;;;;;;;14.63;7.00;;;;;;;5.02;69.94;96596.66;5037159;28;20545;-87
2021/04/03 00:37:52;;;;;;;16.53;7.50;;;;;;;5.06;69.78;96588.38;5036836;28;20443;-86
2021/04/03 00:40:20;;;;;;;17.73;8.07;;;;;;;4.99;69.95;96578.94;5037566;28;20582;-87
2021/04/03 00:42:47;;;;;;;16.40;7.20;;;;;;;5.05;69.76;96587.66;5036815;28;20410;-87
2021/04/03 00:45:15;;;;;;;12.67;7.53;;;;;;;5.00;70.05;96588.44;5037433;28;20471;-87
2021/04/03 00:47:41;;;;;;;16.50;8.07;;;;;;;5.05;69.85;96579.63;5037152;28;20539;-87
2021/04/03 00:50:10;;;;;;;11.77;7.10;;;;;;;5.04;69.77;96583.53;5037086;28;20527;-86
2021/04/03 00:52:37;;;;;;;16.90;7.90;;;;;;;4.97;69.93;96575.31;5037364;28;20467;-86
2021/04/03 00:55:04;;;;;;;23.97;8.70;;;;;;;4.97;69.88;96576.06;5037356;28;20554;-86
2021/04/03 00:57:30;;;;;;;12.33;7.13;;;;;;;5.05;69.87;96576.94;5036763;28;20480;-86
2021/04/03 00:59:56;;;;;;;12.67;7.27;;;;;;;5.00;69.47;96572.38;5037032;28;20449;-86
2021/04/03 01:02:22;;;;;;;14.53;8.40;;;;;;;5.07;69.23;96573.78;5036751;28;20459;-86
2021/04/03 01:04:48;;;;;;;13.30;7.90;;;;;;;5.02;68.88;96577.22;5036733;28;20443;-86
2021/04/03 01:07:14;;;;;;;11.10;7.03;;;;;;;5.00;68.54;96585.75;5036781;28;20508;-86
2021/04/03 01:09:43;;;;;;;17.07;7.83;;;;;;;4.90;69.30;96576.56;5036706;28;20903;-85
2021/04/03 01:12:20;;;;;;;19.77;8.60;;;;;;;4.84;68.89;96581.25;5036631;28;20902;-86
2021/04/03 01:14:54;;;;;;;19.30;7.60;;;;;;;4.97;68.27;96576.06;5039454;28;20480;-86
2021/04/03 01:17:26;;;;;;;16.63;8.60;;;;;;;4.99;68.09;96581.63;5043146;28;20464;-86
2021/04/03 01:20:11;;;;;;;13.03;7.00;;;;;;;5.07;67.21;96585.22;5042811;28;20462;-86
2021/04/03 01:23:04;;;;;;;16.33;7.70;;;;;;;5.03;67.20;96579.41;5058514;28;20410;-85
2021/04/03 01:25:44;;;;;;;15.83;6.20;;;;;;;4.91;67.70;96575.38;5065188;28;20442;-85
2021/04/03 01:28:39;;;;;;;15.73;6.87;;;;;;;5.00;66.97;96577.00;5065238;28;20414;-85
2021/04/03 01:31:07;;;;;;;12.20;6.70;;;;;;;4.97;67.02;96569.97;5044977;28;20459;-86
2021/04/03 01:33:39;;;;;;;12.40;7.10;;;;;;;4.89;66.90;96572.44;5042691;28;20439;-86
2021/04/03 01:36:12;;;;;;;15.80;7.23;;;;;;;4.97;66.77;96560.00;5042788;28;20423;-86
2021/04/03 01:38:43;;;;;;;10.93;6.97;;;;;;;4.96;66.96;96558.53;5042663;28;20868;-86
2021/04/03 01:41:11;;;;;;;15.40;6.63;;;;;;;5.00;66.57;96560.97;5043264;28;20546;-86
2021/04/03 01:43:43;;;;;;;15.50;6.50;;;;;;;4.96;66.92;96561.22;5044110;28;20991;-87
2021/04/03 01:46:11;;;;;;;13.30;8.00;;;;;;;4.82;67.35;96559.63;5043507;28;20430;-86
2021/04/03 01:48:39;;;;;;;16.10;6.90;;;;;;;4.97;66.64;96564.63;5042988;28;21031;-86
2021/04/03 01:51:06;;;;;;;11.90;6.60;;;;;;;4.94;66.37;96565.63;5042657;28;20462;-86
2021/04/03 01:53:34;;;;;;;19.33;7.73;;;;;;;4.75;67.02;96560.88;5042737;28;20943;-87
2021/04/03 01:56:02;;;;;;;16.03;6.43;;;;;;;4.86;66.69;96552.78;5043242;28;20577;-86
2021/04/03 01:58:29;;;;;;;18.43;8.40;;;;;;;4.93;66.38;96564.88;5043124;28;20517;-86
2021/04/03 02:00:57;;;;;;;13.80;6.37;;;;;;;4.88;66.17;96564.94;5043174;28;20550;-86
2021/04/03 02:03:24;;;;;;;19.03;9.23;;;;;;;5.00;66.18;96553.66;5042934;28;20431;-86
2021/04/03 02:05:51;;;;;;;9.57;5.93;;;;;;;4.89;66.17;96558.38;5043097;28;20533;-86
2021/04/03 02:08:18;;;;;;;10.50;6.20;;;;;;;4.82;66.74;96548.94;5042884;28;20466;-86
2021/04/03 02:10:46;;;;;;;7.90;5.87;;;;;;;4.85;66.17;96555.97;5042437;28;20459;-86
2021/04/03 02:13:14;;;;;;;16.33;6.73;;;;;;;4.79;66.18;96552.59;5051671;28;20430;-86
2021/04/03 02:15:41;;;;;;;18.00;7.37;;;;;;;4.81;66.34;96548.22;5064518;28;20525;-86
2021/04/03 02:18:08;;;;;;;10.33;7.00;;;;;;;4.89;66.45;96548.38;5064198;28;20431;-86
2021/04/03 02:20:36;;;;;;;12.30;6.80;;;;;;;4.95;66.05;96551.03;5064565;28;20474;-85
2021/04/03 02:23:02;;;;;;;10.00;6.33;;;;;;;5.02;65.23;96545.13;5055578;28;20440;-86
2021/04/03 02:25:28;;;;;;;17.07;7.03;;;;;;;5.08;65.44;96543.13;5041526;28;20442;-86
2021/04/03 02:27:54;;;;;;;10.30;5.47;;;;;;;5.06;65.45;96542.91;5038893;28;20518;-86
2021/04/03 02:30:23;;;;;;;13.23;6.30;;;;;;;4.83;65.68;96550.38;5039689;28;20554;-86
2021/04/03 02:32:51;;;;;;;41.37;6.87;;;;;;;4.84;66.15;96552.56;5039198;28;20471;-86
2021/04/03 02:35:19;;;;;;;12.13;6.00;;;;;;;4.82;66.80;96551.63;5039479;28;20507;-86
2021/04/03 02:37:47;;;;;;;9.10;5.43;;;;;;;4.75;67.12;96549.47;5039473;28;20459;-86
2021/04/03 02:40:18;;;;;;;12.17;6.87;;;;;;;4.95;66.80;96551.75;5039192;28;20529;-86
2021/04/03 02:42:54;;;;;;;17.33;7.20;;;;;;;4.97;66.44;96554.66;5039219;28;20504;-86
2021/04/03 02:45:22;;;;;;;9.20;5.97;;;;;;;5.05;66.39;96552.16;5038962;28;20468;-86
2021/04/03 02:47:50;;;;;;;11.67;6.53;;;;;;;5.05;66.62;96555.56;5039925;28;20904;-86
2021/04/03 02:50:20;;;;;;;10.47;7.00;;;;;;;5.00;66.48;96551.00;5039509;28;20515;-87
2021/04/03 02:52:51;;;;;;;16.23;6.53;;;;;;;4.93;67.09;96550.78;5039585;28;20412;-86
2021/04/03 02:55:19;;;;;;;12.30;6.30;;;;;;;4.98;67.26;96547.38;5038895;28;20562;-86
2021/04/03 02:57:46;;;;;;;7.70;6.20;;;;;;;4.99;67.20;96554.16;5038010;28;20435;-87
2021/04/03 03:00:14;;;;;;;18.33;6.60;;;;;;;4.83;67.38;96563.72;5039043;28;20515;-87
2021/04/03 03:02:41;;;;;;;10.67;6.17;;;;;;;4.89;66.66;96569.78;5039513;28;20807;-86
2021/04/03 03:05:09;;;;;;;13.07;6.60;;;;;;;4.92;67.05;96571.44;5038992;28;20800;-87
2021/04/03 03:07:39;;;;;;;12.80;6.07;;;;;;;4.94;66.84;96557.59;5038841;28;20458;-87
2021/04/03 03:10:07;;;;;;;11.13;5.40;;;;;;;5.00;66.12;96558.28;5039189;28;20450;-86
2021/04/03 03:12:35;;;;;;;10.37;5.03;;;;;;;4.95;65.71;96559.75;5038382;28;20991;-86
2021/04/03 03:15:04;;;;;;;7.53;5.00;;;;;;;4.85;66.25;96561.31;5039229;28;20487;-86
2021/04/03 03:17:30;;;;;;;9.33;5.63;;;;;;;4.70;66.75;96572.31;5039234;28;20557;-86
2021/04/03 03:20:00;;;;;;;7.40;5.57;;;;;;;4.78;66.48;96572.53;5038444;28;20546;-86
2021/04/03 03:22:27;;;;;;;10.17;5.70;;;;;;;4.74;66.82;96575.47;5039538;28;20555;-86
2021/04/03 03:24:53;;;;;;;9.07;6.00;;;;;;;4.85;66.47;96566.66;5038293;28;21016;-86
2021/04/03 03:27:20;;;;;;;13.00;5.93;;;;;;;4.90;66.31;96570.50;5038477;28;20508;-86
2021/04/03 03:29:47;;;;;;;11.70;6.23;;;;;;;4.89;65.98;96564.44;5038590;28;20440;-85
2021/04/03 03:32:14;;;;;;;10.30;5.17;;;;;;;4.61;66.32;96566.53;5038319;28;20534;-86
2021/04/03 03:34:40;;;;;;;11.30;5.10;;;;;;;4.60;66.64;96560.50;5037700;28;20546;-86
2021/04/03 03:37:06;;;;;;;8.40;4.53;;;;;;;4.71;66.06;96567.72;5037927;28;20432;-86
2021/04/03 03:39:32;;;;;;;13.07;6.27;;;;;;;4.62;66.06;96562.66;5037571;28;20452;-86
2021/04/03 03:42:01;;;;;;;10.63;4.37;;;;;;;4.66;65.84;96555.13;5037775;28;20542;-86
2021/04/03 03:44:29;;;;;;;9.13;5.23;;;;;;;4.69;66.38;96554.13;5037887;28;20810;-86
2021/04/03 03:46:55;;;;;;;8.70;4.47;;;;;;;4.65;65.74;96559.00;5038084;28;20443;-86
2021/04/03 03:49:21;;;;;;;6.90;4.60;;;;;;;4.62;65.51;96562.66;5037989;28;20435;-86
2021/04/03 03:51:47;;;;;;;14.70;4.93;;;;;;;4.63;65.70;96564.84;5037641;28;20943;-85
2021/04/03 03:54:14;;;;;;;6.70;3.70;;;;;;;4.65;65.92;96561.66;5038378;28;20537;-85
2021/04/03 03:56:40;;;;;;;8.83;4.87;;;;;;;4.73;66.07;96565.28;5037888;28;20434;-86
2021/04/03 03:59:06;;;;;;;11.23;4.67;;;;;;;4.70;66.17;96568.91;5037478;28;21030;-86
2021/04/03 04:01:33;;;;;;;7.60;5.77;;;;;;;4.72;65.96;96553.13;5037845;28;20995;-86
2021/04/03 04:03:59;;;;;;;12.00;5.43;;;;;;;4.75;65.94;96560.16;5037974;28;20448;-87
2021/04/03 04:06:25;;;;;;;9.43;4.73;;;;;;;4.66;65.65;96560.47;5037754;28;20503;-87
2021/04/03 04:08:52;;;;;;;12.70;4.40;;;;;;;4.62;66.18;96568.72;5038053;28;20518;-86
2021/04/03 04:11:18;;;;;;;11.43;4.50;;;;;;;4.59;65.63;96563.66;5037245;28;20510;-86
2021/04/03 04:13:44;;;;;;;10.03;4.77;;;;;;;4.59;65.76;96563.66;5037305;28;20447;-86
2021/04/03 04:16:10;;;;;;;8.10;4.50;;;;;;;4.49;65.87;96565.16;5037566;28;20517;-86
2021/04/03 04:18:37;;;;;;;6.40;4.13;;;;;;;4.36;66.40;96563.03;5037773;28;20459;-86
2021/04/03 04:21:03;;;;;;;12.97;4.40;;;;;;;4.39;66.66;96556.69;5037929;28;20550;-86
2021/04/03 04:23:29;;;;;;;11.43;5.50;;;;;;;4.44;66.61;96563.97;5037767;28;20436;-85
2021/04/03 04:25:56;;;;;;;7.53;4.13;;;;;;;4.41;66.99;96580.25;5038274;28;20445;-86
2021/04/03 04:28:22;;;;;;;9.00;5.27;;;;;;;4.36;66.83;96572.97;5044145;28;20459;-86
2021/04/03 04:30:48;;;;;;;8.53;5.10;;;;;;;4.38;67.16;96583.91;5058994;28;20502;-85
2021/04/03 04:33:14;;;;;;;11.67;4.70;;;;;;;4.44;67.03;96581.94;5058818;28;20470;-86
2021/04/03 04:35:41;;;;;;;11.97;4.70;;;;;;;4.51;67.07;96584.09;5046856;28;20933;-85
2021/04/03 04:38:07;;;;;;;8.57;4.50;;;;;;;4.43;67.62;96575.88;5037860;28;20492;-86
2021/04/03 04:40:34;;;;;;;9.90;3.90;;;;;;;4.36;67.68;96586.34;5038056;28;20457;-86
2021/04/03 04:43:00;;;;;;;11.53;4.67;;;;;;;4.30;68.16;96587.09;5037604;28;20466;-86
2021/04/03 04:45:26;;;;;;;11.03;4.93;;;;;;;4.37;68.19;96591.19;5037636;28;20413;-86
2021/04/03 04:47:52;;;;;;;8.97;4.90;;;;;;;4.43;68.15;96588.50;5037672;28;20436;-86
2021/04/03 04:50:18;;;;;;;9.10;4.87;;;;;;;4.38;68.30;96594.59;5037006;28;20537;-86
2021/04/03 04:52:45;;;;;;;8.13;5.13;;;;;;;4.44;68.28;96592.63;5037552;28;20527;-86
2021/04/03 04:55:13;;;;;;;6.90;4.33;;;;;;;4.43;68.83;96599.91;5037950;28;20578;-86
2021/04/03 04:57:39;;;;;;;9.17;4.53;;;;;;;4.49;68.52;96602.56;5038856;28;20439;-86
2021/04/03 05:00:06;;;;;;;10.10;5.23;;;;;;;4.49;68.12;96605.22;5038196;28;20912;-84
2021/04/03 05:02:32;;;;;;;8.33;5.13;;;;;;;4.41;68.57;96606.97;5037612;28;20494;-86
2021/04/03 05:04:58;;;;;;;13.77;6.40;;;;;;;4.47;68.49;96608.41;5038970;28;20503;-87
2021/04/03 05:07:24;;;;;;;14.50;4.33;;;;;;;4.52;68.67;96610.31;5037966;28;20534;-86
2021/04/03 05:09:51;;;;;;;9.60;5.10;;;;;;;4.53;68.46;96603.03;5037465;28;20514;-85
2021/04/03 05:12:17;;;;;;;8.10;5.00;;;;;;;4.56;68.37;96612.72;5038086;28;20526;-86
2021/04/03 05:14:43;;;;;;;10.13;5.10;;;;;;;4.48;68.81;96604.50;5037993;28;20487;-86
2021/04/03 05:17:09;;;;;;;6.53;4.77;;;;;;;4.53;68.74;96613.72;5038782;28;20447;-86
2021/04/03 05:19:35;;;;;;;6.97;4.70;;;;;;;4.62;68.46;96606.16;5037727;28;20465;-87
2021/04/03 05:22:02;;;;;;;11.10;4.87;;;;;;;4.64;67.84;96611.72;5037614;28;20499;-85
2021/04/03 05:24:28;;;;;;;12.40;4.87;;;;;;;4.64;68.04;96616.31;5040948;28;20518;-84
2021/04/03 05:26:55;;;;;;;17.83;5.47;;;;;;;4.67;67.89;96618.00;5044206;28;20515;-86
2021/04/03 05:29:21;;;;;;;11.17;5.20;;;;;;;4.63;67.71;96620.22;5046465;28;20507;-85
2021/04/03 05:31:47;;;;;;;6.27;4.13;;;;;;;4.67;67.68;96615.34;5056099;28;20498;-86
2021/04/03 05:34:13;;;;;;;7.73;4.27;;;;;;;4.65;67.56;96623.13;5039587;28;20486;-86
2021/04/03 05:36:39;;;;;;;16.00;5.10;;;;;;;4.69;67.49;96620.94;5038608;28;20534;-87
2021/04/03 05:39:06;;;;;;;13.83;4.90;;;;;;;4.55;67.93;96614.66;5038076;28;20443;-86
2021/04/03 05:41:32;;;;;;;8.97;4.30;;;;;;;4.63;68.34;96618.28;5037774;28;20549;-85
2021/04/03 05:44:01;;;;;;;11.27;4.50;;;;;;;4.80;67.11;96632.28;5038874;28;20464;-86
2021/04/03 05:46:28;;;;;;;5.40;3.60;;;;;;;4.78;67.13;96625.97;5039116;28;20558;-86
2021/04/03 05:48:55;;;;;;;9.57;4.57;;;;;;;4.70;67.41;96638.41;5038782;28;20435;-86
2021/04/03 05:51:22;;;;;;;9.73;4.27;;;;;;;4.69;67.94;96639.63;5038934;28;20551;-87
2021/04/03 05:53:48;;;;;;;12.73;4.50;;;;;;;4.71;67.62;96637.19;5038299;28;20526;-86
2021/04/03 05:56:14;;;;;;;10.07;4.93;;;;;;;4.90;67.22;96642.69;5038262;28;20500;-86
2021/04/03 05:58:40;;;;;;;6.33;4.10;;;;;;;4.84;67.54;96648.06;5038054;28;20892;-86
2021/04/03 06:01:08;;;;;;;10.70;4.33;;;;;;;4.81;67.39;96654.41;5039443;28;21010;-87
2021/04/03 06:03:35;;;;;;;8.70;5.07;;;;;;;5.02;67.14;96657.44;5041543;28;20481;-86
2021/04/03 06:06:01;;;;;;;7.80;4.67;;;;;;;5.07;67.05;96654.75;5040920;28;20446;-86
2021/04/03 06:08:29;;;;;;;8.63;4.00;;;;;;;4.92;67.09;96659.66;5041966;28;20954;-87
2021/04/03 06:11:16;;;;;;;9.23;4.57;;;;;;;5.48;65.71;96664.69;5040401;28;20459;-86
2021/04/03 06:13:44;;;;;;;9.97;4.10;;;;;;;6.32;63.12;96663.47;5040823;28;20499;-86
2021/04/03 06:16:29;;;;;;;10.33;4.47;;;;;;;6.38;61.59;96671.44;5041611;28;20447;-86
2021/04/03 06:19:13;;;;;;;9.93;4.80;;;;;;;6.85;60.86;96680.63;5041266;28;20545;-87
2021/04/03 06:21:41;;;;;;;12.40;4.70;;;;;;;7.24;59.09;96679.38;5040824;28;20462;-86
2021/04/03 06:24:32;;;;;;;7.90;3.90;;;;;;;7.55;57.89;96684.78;5040317;28;20530;-86
2021/04/03 06:27:01;;;;;;;12.57;3.40;;;;;;;7.80;57.43;96687.34;5021931;28;20884;-86
2021/04/03 06:29:31;;;;;;;6.40;3.77;;;;;;;7.73;56.79;96691.34;5040582;28;20435;-86
2021/04/03 06:32:00;;;;;;;8.57;3.97;;;;;;;7.63;57.27;96681.50;5040800;28;20968;-86
2021/04/03 06:34:31;;;;;;;6.30;3.80;;;;;;;7.08;58.65;96689.09;5040497;28;20493;-85
2021/04/03 06:36:58;;;;;;;10.87;4.07;;;;;;;6.87;60.15;96693.53;5041306;28;20509;-86
2021/04/03 06:39:24;;;;;;;6.73;3.83;;;;;;;6.78;59.99;96688.50;5039737;28;20515;-86
2021/04/03 06:41:50;;;;;;;5.83;3.87;;;;;;;6.89;60.65;96696.44;5040119;28;20558;-86
2021/04/03 06:44:16;;;;;;;8.73;5.13;;;;;;;7.53;58.29;96692.63;5040365;28;20521;-86
2021/04/03 06:46:44;;;;;;;6.73;3.60;;;;;;;8.44;56.48;96688.69;5039884;28;20947;-86
2021/04/03 06:49:12;;;;;;;9.90;5.27;;;;;;;9.10;53.68;96693.97;5040712;28;20466;-86
2021/04/03 06:51:39;;;;;;;9.60;4.60;;;;;;;8.49;54.39;96687.84;5023221;28;20459;-86
2021/04/03 06:54:07;;;;;;;10.30;4.03;;;;;;;8.75;54.47;96697.13;5040884;28;20467;-86
2021/04/03 06:56:34;;;;;;;8.50;4.20;;;;;;;8.48;55.05;96691.06;5045588;28;20467;-86
2021/04/03 06:59:02;;;;;;;7.20;5.07;;;;;;;8.84;53.63;96696.72;5047815;28;20481;-87
2021/04/03 07:01:36;;;;;;;9.80;4.70;;;;;;;9.16;53.17;96691.91;5046541;28;20502;-86
2021/04/03 07:04:09;;;;;;;6.73;3.93;;;;;;;8.27;55.14;96687.53;5047237;28;20481;-86
2021/04/03 07:06:37;;;;;;;7.30;3.50;;;;;;;8.74;54.32;96695.72;5045512;28;20451;-87
2021/04/03 07:09:04;;;;;;;6.53;4.40;;;;;;;8.57;54.45;96706.78;5045211;28;20943;-87
2021/04/03 07:11:31;;;;;;;7.10;4.20;;;;;;;8.47;54.23;96700.38;5046582;28;20485;-87
2021/04/03 07:13:59;;;;;;;8.00;3.70;;;;;;;7.81;56.43;96704.88;5045908;28;20469;-86
2021/04/03 07:16:27;;;;;;;4.90;3.60;;;;;;;7.52;57.72;96714.59;5046186;28;20447;-86
2021/04/03 07:18:55;;;;;;;11.77;5.00;;;;;;;7.89;56.33;96716.50;5050105;28;20498;-86
2021/04/03 07:21:21;;;;;;;8.77;4.90;;;;;;;7.47;58.04;96716.13;5048064;28;20889;-87
2021/04/03 07:23:49;;;;;;;6.20;3.70;;;;;;;7.36;57.69;96707.53;5046435;28;20470;-86
2021/04/03 07:26:17;;;;;;;4.00;3.23;;;;;;;7.05;58.78;96706.22;5045684;28;20435;-86
2021/04/03 07:28:43;;;;;;;4.47;3.23;;;;;;;7.01;59.44;96719.22;5048604;28;20610;-87
2021/04/03 07:31:10;;;;;;;5.90;4.03;;;;;;;6.67;59.99;96715.47;5047902;28;20478;-86
2021/04/03 07:33:48;;;;;;;11.30;4.07;;;;;;;6.99;58.95;96710.91;5048085;28;20909;-86
2021/04/03 07:36:31;;;;;;;7.03;4.10;;;;;;;7.12;58.63;96716.38;5048278;28;20475;-87
2021/04/03 07:38:58;;;;;;;6.33;3.90;;;;;;;7.09;58.94;96714.69;5050017;28;20408;-85
2021/04/03 07:41:25;;;;;;;5.83;4.30;;;;;;;7.66;57.10;96716.09;5048077;28;20467;-87
2021/04/03 07:43:51;;;;;;;10.40;4.70;;;;;;;7.91;56.67;96716.69;5049881;28;20470;-86
2021/04/03 07:46:38;;;;;;;6.90;4.20;;;;;;;8.28;55.86;96724.66;5050364;28;20535;-88
2021/04/03 07:49:04;;;;;;;7.47;3.60;;;;;;;8.12;56.12;96731.00;5048917;28;20454;-86
2021/04/03 07:51:45;;;;;;;10.20;3.60;;;;;;;8.45;55.14;96721.69;5058621;28;20470;-86
2021/04/03 07:54:30;;;;;;;7.60;4.80;;;;;;;8.22;55.59;96718.63;5058939;28;20436;-86
2021/04/03 07:56:59;;;;;;;6.63;3.70;;;;;;;7.97;56.11;96728.06;5057280;28;20423;-85
2021/04/03 07:59:47;;;;;;;7.50;4.17;;;;;;;7.84;55.83;96731.44;5050481;28;20443;-85
2021/04/03 08:02:16;;;;;;;4.80;3.23;;;;;;;7.45;56.85;96740.09;5049523;28;20467;-88
2021/04/03 08:04:42;;;;;;;19.30;5.00;;;;;;;7.76;56.48;96740.63;5052136;28;21025;-86
2021/04/03 08:07:09;;;;;;;12.53;4.23;;;;;;;7.80;56.89;96741.06;5047841;28;20432;-87
2021/04/03 08:09:37;;;;;;;8.90;4.33;;;;;;;7.82;56.50;96752.00;5043825;28;20518;-87
2021/04/03 08:12:05;;;;;;;10.90;4.33;;;;;;;7.41;56.44;96747.72;5043849;28;20467;-87
2021/04/03 08:14:33;;;;;;;6.63;3.43;;;;;;;7.31;56.03;96756.63;5040287;28;20569;-87
2021/04/03 08:17:00;;;;;;;8.40;3.30;;;;;;;6.99;57.38;96751.16;5040996;28;20443;-86
2021/04/03 08:19:27;;;;;;;3.23;2.90;;;;;;;7.20;57.07;96752.16;5040838;28;20556;-87
2021/04/03 08:21:53;;;;;;;8.17;3.10;;;;;;;7.35;56.42;96768.53;5041166;28;20467;-86
2021/04/03 08:24:20;;;;;;;8.20;3.07;;;;;;;7.33;56.16;96770.28;5051341;28;20474;-86
2021/04/03 08:26:48;;;;;;;6.90;3.33;;;;;;;6.94;57.02;96763.41;5050055;28;20515;-86
2021/04/03 08:29:23;;;;;;;6.17;3.03;;;;;;;7.06;57.08;96766.69;5047180;28;20778;-86
2021/04/03 08:31:50;;;;;;;11.53;3.87;;;;;;;7.14;57.85;96780.28;5048558;28;20530;-85
2021/04/03 08:34:17;;;;;;;10.83;3.27;;;;;;;6.76;58.28;96768.75;5040686;28;20451;-86
2021/04/03 08:36:43;;;;;;;6.70;3.40;;;;;;;6.92;58.45;96773.22;5043804;28;20526;-87
2021/04/03 08:39:10;;;;;;;7.53;3.87;;;;;;;6.73;59.16;96778.53;5041460;28;20526;-86
2021/04/03 08:41:39;;;;;;;4.17;2.83;;;;;;;6.82;59.00;96783.56;5041244;28;20525;-86
2021/04/03 08:44:16;;;;;;;8.80;3.80;;;;;;;7.22;57.85;96778.47;5043188;28;20446;-86
2021/04/03 08:46:43;;;;;;;6.77;2.93;;;;;;;7.42;56.94;96788.72;5046788;28;20490;-86
2021/04/03 08:49:10;;;;;;;6.73;2.40;;;;;;;7.21;56.24;96791.16;5043592;28;20512;-87
2021/04/03 08:51:37;;;;;;;7.37;3.07;;;;;;;6.89;57.12;96788.34;5044113;28;20477;-85
2021/04/03 08:54:03;;;;;;;6.70;3.30;;;;;;;6.65;58.37;96796.41;5044696;28;21025;-87
2021/04/03 08:56:33;;;;;;;8.23;2.93;;;;;;;6.87;57.71;96793.50;5049437;28;20435;-86
2021/04/03 08:59:00;;;;;;;9.37;3.07;;;;;;;6.81;58.18;96797.44;5050932;28;20424;-85
2021/04/03 09:01:29;;;;;;;8.17;3.33;;;;;;;6.84;58.26;96785.72;5049443;28;20455;-85
2021/04/03 09:03:57;;;;;;;9.33;3.33;;;;;;;7.05;57.58;96783.31;5051451;28;20493;-86
2021/04/03 09:06:42;;;;;;;9.83;3.53;;;;;;;7.42;55.98;96789.41;5051483;28;20470;-86
2021/04/03 09:09:10;;;;;;;10.10;2.63;;;;;;;7.46;55.92;96794.50;5049562;28;20432;-87
2021/04/03 09:11:37;;;;;;;7.03;3.37;;;;;;;7.50;56.04;96798.34;5049604;28;21033;-86
2021/04/03 09:14:03;;;;;;;6.30;2.37;;;;;;;7.84;54.48;96800.56;5048886;28;20526;-86
2021/04/03 09:16:36;;;;;;;8.20;3.07;;;;;;;7.76;54.85;96791.66;5050519;28;20511;-86
2021/04/03 09:19:03;;;;;;;4.00;2.80;;;;;;;7.39;55.79;96801.16;5046832;28;20550;-87
2021/04/03 09:21:30;;;;;;;5.93;3.30;;;;;;;7.63;54.99;96813.06;5050081;28;20487;-86
2021/04/03 09:23:56;;;;;;;4.50;3.47;;;;;;;7.49;54.26;96799.56;5050660;28;20416;-85
2021/04/03 09:26:36;;;;;;;4.50;3.23;;;;;;;7.53;55.00;96812.72;5051200;28;20461;-85
2021/04/03 09:29:08;;;;;;;6.13;3.00;;;;;;;7.31;55.23;96813.72;5050325;28;20518;-86
2021/04/03 09:31:39;;;;;;;10.90;3.20;;;;;;;7.58;54.17;96811.19;5045493;28;20685;-88
2021/04/03 09:34:06;;;;;;;5.20;2.93;;;;;;;7.26;54.06;96816.47;5048158;28;20446;-88
2021/04/03 09:36:43;;;;;;;6.10;3.43;;;;;;;7.34;54.78;96815.38;5050406;28;20463;-86
2021/04/03 09:39:17;;;;;;;13.70;3.70;;;;;;;7.25;56.24;96813.06;5044727;28;20442;-87
2021/04/03 09:41:48;;;;;;;4.43;2.97;;;;;;;7.24;56.26;96802.81;5043032;28;20466;-87
2021/04/03 09:44:15;;;;;;;10.33;3.47;;;;;;;7.09;56.89;96805.19;5043363;28;20455;-87
2021/04/03 09:46:43;;;;;;;11.20;4.20;;;;;;;7.38;56.60;96815.84;5043582;28;20511;-87
2021/04/03 09:49:10;;;;;;;9.67;3.80;;;;;;;7.42;55.65;96805.50;5043160;28;20443;-87
2021/04/03 09:51:37;;;;;;;8.60;3.30;;;;;;;7.42;54.75;96802.13;5042952;28;20493;-86
2021/04/03 09:54:03;;;;;;;5.50;3.10;;;;;;;7.49;54.10;96802.25;5042155;28;20435;-87
2021/04/03 09:56:29;;;;;;;4.57;3.10;;;;;;;7.36;52.80;96807.53;5041884;28;20506;-86
2021/04/03 09:58:58;;;;;;;6.90;3.43;;;;;;;7.30;54.20;96801.53;5043453;28;20459;-86
2021/04/03 10:01:24;;;;;;;5.70;3.80;;;;;;;7.31;55.52;96805.66;5043714;28;20460;-87
2021/04/03 10:03:53;;;;;;;7.77;2.90;;;;;;;7.74;54.82;96813.63;5049867;28;20502;-86
2021/04/03 10:06:19;;;;;;;9.40;3.17;;;;;;;7.85;53.77;96818.16;5060545;28;20447;-86
2021/04/03 10:08:45;;;;;;;5.73;3.20;;;;;;;8.01;52.67;96819.88;5059459;28;20477;-87
2021/04/03 10:11:12;;;;;;;7.33;3.30;;;;;;;7.91;53.13;96811.47;5045875;28;20466;-85
2021/04/03 10:13:38;;;;;;;4.33;3.67;;;;;;;8.27;52.75;96825.31;5042588;28;20819;-85
2021/04/03 10:16:04;;;;;;;14.63;3.43;;;;;;;8.03;53.38;96830.81;5041875;28;20862;-87
2021/04/03 10:18:30;;;;;;;5.40;3.33;;;;;;;8.03;53.29;96825.44;5041662;28;21070;-86
2021/04/03 10:20:57;;;;;;;7.93;3.67;;;;;;;8.01;53.37;96809.13;5042425;28;20473;-86
2021/04/03 10:23:23;;;;;;;10.27;3.77;;;;;;;8.25;52.87;96830.50;5042866;28;20441;-85
2021/04/03 10:25:50;;;;;;;10.50;4.13;;;;;;;8.09;52.68;96824.13;5041523;28;20443;-86
2021/04/03 10:28:16;;;;;;;5.50;3.17;;;;;;;7.93;53.47;96819.00;5041282;28;20886;-86
2021/04/03 10:30:42;;;;;;;4.47;3.03;;;;;;;7.97;53.53;96822.84;5041784;28;20526;-86
2021/04/03 10:33:09;;;;;;;4.17;2.73;;;;;;;8.22;53.22;96823.44;5042397;28;20453;-86
2021/04/03 10:35:35;;;;;;;9.20;3.47;;;;;;;8.19;52.85;96835.22;5040910;28;20507;-87
2021/04/03 10:38:02;;;;;;;8.70;4.10;;;;;;;8.63;52.55;96825.03;5040771;28;20443;-86
2021/04/03 10:40:28;;;;;;;6.00;3.10;;;;;;;8.92;51.65;96829.41;5041637;28;20443;-86
2021/04/03 10:42:55;;;;;;;8.63;3.37;;;;;;;8.78;51.92;96827.94;5041774;28;20481;-86
2021/04/03 10:45:21;;;;;;;8.23;3.60;;;;;;;8.53;51.02;96843.50;5040772;28;20509;-86
2021/04/03 10:47:47;;;;;;;9.60;3.43;;;;;;;8.41;51.83;96839.56;5039162;28;20490;-86
2021/04/03 10:50:13;;;;;;;8.50;3.80;;;;;;;8.32;52.73;96843.38;5040529;28;20418;-87
2021/04/03 10:52:40;;;;;;;7.53;4.20;;;;;;;8.35;52.71;96828.91;5040385;28;20504;-85
2021/04/03 10:55:08;;;;;;;8.60;4.13;;;;;;;8.45;52.46;96837.31;5039672;28;20569;-86
2021/04/03 10:57:34;;;;;;;7.03;3.83;;;;;;;8.71;51.83;96820.50;5040844;28;20833;-87
2021/04/03 11:00:01;;;;;;;8.57;3.53;;;;;;;8.79;50.78;96837.47;5041006;28;20448;-87
2021/04/03 11:02:27;;;;;;;5.73;3.00;;;;;;;8.71;49.78;96818.50;5041204;28;20476;-87
2021/04/03 11:04:53;;;;;;;4.87;3.13;;;;;;;8.95;49.93;96814.91;5039043;28;20503;-86
2021/04/03 11:07:19;;;;;;;4.43;2.97;;;;;;;9.34;49.07;96811.47;5039244;28;20447;-86
2021/04/03 11:09:45;;;;;;;5.43;3.23;;;;;;;9.42;48.33;96818.41;5039140;28;20449;-86
2021/04/03 11:12:13;;;;;;;8.40;3.13;;;;;;;9.38;47.18;96839.53;5038582;28;20463;-86
2021/04/03 11:14:40;;;;;;;8.50;2.80;;;;;;;9.32;48.59;96822.75;5037929;28;20487;-86
2021/04/03 11:17:06;;;;;;;8.07;3.40;;;;;;;9.67;48.02;96826.94;5039217;28;20465;-86
2021/04/03 11:19:36;;;;;;;8.50;2.90;;;;;;;9.24;47.93;96827.31;5039018;28;20459;-87
2021/04/03 11:22:03;;;;;;;10.47;2.90;;;;;;;9.02;48.34;96817.00;5039487;28;21045;-87
2021/04/03 11:24:29;;;;;;;5.90;3.00;;;;;;;8.96;48.71;96816.34;5041864;28;20954;-84
2021/04/03 11:26:55;;;;;;;4.23;2.50;;;;;;;8.82;48.68;96822.97;5050518;28;20835;-86
2021/04/03 11:29:22;;;;;;;7.90;3.17;;;;;;;8.67;48.43;96826.19;5044647;28;20418;-85
2021/04/03 11:31:48;;;;;;;6.10;3.93;;;;;;;8.64;48.03;96821.09;5044963;28;20478;-86
2021/04/03 11:34:14;;;;;;;4.47;2.70;;;;;;;8.66;48.17;96824.00;5040907;28;21018;-87
2021/04/03 11:36:40;;;;;;;5.87;3.13;;;;;;;8.59;48.51;96826.06;5037145;28;20487;-86
2021/04/03 11:39:07;;;;;;;5.27;2.70;;;;;;;8.74;48.75;96822.16;5038401;28;20511;-85
2021/04/03 11:41:33;;;;;;;5.23;2.83;;;;;;;8.91;48.43;96830.63;5039963;28;20501;-86
2021/04/03 11:44:00;;;;;;;6.37;3.37;;;;;;;9.03;48.57;96818.41;5038561;28;20455;-87